Portada
METAR-TAF:

METAR-TAF

Aeroports :

Brageirac, França

latitud: 44-49N, longitud: 000-31E, altitud: 51 m

Observació

L'informe es va fer fa 30 minuts, a les 14:30 UTC
Vent 7 kt del Est/Sud-Est, variant entre Nord-Est i Sud
Temperatura 26°C
Humitat 34%
Pressió 1021 hPa
Visibilitat 10 km o més
sense núvols per sota de 1500 mi sense presència de cumulonimbus.

METAR: LFBE 191430Z AUTO 11007KT 050V170 CAVOK 26/09 Q1021 NOSIG

Hora: 17:00 (15:00 UTC)

Pronòstic

L'informe es va fer fa 4 hores i 0 minuts, a les 11:00 UTC
Pronòstic vàlid del 19 a les 12 UTC al 20 a les 12 UTC
Vent 10 kt del Sud-Est
Visibilitat 10 km o més
sense núvols per sota de 1500 mi sense presència de cumulonimbus.
Probabilitat 40% :
Temporalment
l' 19 a les 12 UTC al 19 a les 15 UTC
Vent 15 kt del Sud-Est amb ràfegues de 25 kt
Evolucionant progressivament
l' 19 a les 21 UTC al 19 a les 23 UTC
Vent 5 kt del Est

TAF: LFBE 191100Z 1912/2012 13010KT CAVOK PROB40 TEMPO 1912/1915 13015G25KT BECMG 1921/1923 09005KT

Observacions i pronòstics meteorològics de més de 4000 aeroports (METAR i TAF).

Les estacions disponibles són els punts grocs i vermells al mapa.

Posi el ratolí al punt desitjat per veure el nom de l'estació.

Feu clic per veure les observacions i els pronòstics meteorològics.

Per canviar el mapa: feu clic els botons verds amb una creu de color negre per apropar; al botó verd amb un guió per allunyar la imatge; o en les fletxes verdes per a mapes adjacents.


METAR-TAF: